Aérodrome :
LOGIN :

S'inscrire | Disclaimer

   EN    FR    IT 

 










Légende :    VFR   VFR Marginal   IFR   IFR Intensif   IFR Très Intensif
Visi : 
Plafond : 
>= 8 km
>= 3000ft
5 à 8 km
1000 à 3000 ft
1500m à 5 km
500 à 1000 ft
800 à 1500m
200 à 500 ft
< 800m
< 200 ft
Symboles :   Orages  Brouillard  Fortes neiges  Fortes précipitations  Vent > 20 kt
SIGMETs :   Divers  Orages  Givrage  Turbulence  Onde Orograph.  Cendres Volcan.







- Altitude de l'aérodrome : 76 ft
- Code IATA : KID


ESMK - Kristianstad

DERNIER METAR :
  • 270350Z AUTO 29003KT 6000 VV000 08/08 Q1023

METARs EXPIRÉS :
  • 270320Z AUTO 00000KT 0200 R01/P2000N R19/0400N BCFG VV000 07/07 Q1023
  • 270250Z AUTO 00000KT 0200 R01/0500N R19/0400N BCFG VV000 06/06 Q1023
  • 270220Z AUTO 00000KT 0150 R01/0450N R19/P2000D BCFG VV000 07/07 Q1023
  • 270150Z AUTO 00000KT 0350 R01/0900N R19/P2000N BCFG VV000 06/06 Q1022
  • 270120Z AUTO 00000KT 0200 R01/0800N R19/P2000N BCFG VV001 07/07 Q1022

Prévision TAF périmée.
Pas de NOTAMs connus pour ce terrain.



MET'MAP, la Météo Aéronautique d'un coup d'oeil ! - Copyright ORBIFLY Décembre 2007 - Disclaimer

ORBIFLY MET'MAP TEAM :

Programmation & Développement : Alexandra Zaïnal
Conception & Développement : Baudouin d'Aumeries
Co-Programmation & Développement : Marc-Olivier Méhu
Soutien technique & logistique : Manuel Goepfert

Contact : metmap@orbifly.com




SOURCES & CREDITS :

   NOAA